createdAt,value
2023-02-12T00:00:12.363Z,49.00
2023-02-12T00:04:13.488Z,53.30
2023-02-12T00:08:15.538Z,47.60
2023-02-12T00:12:16.706Z,48.57
2023-02-12T00:16:21.285Z,53.20
2023-02-12T00:20:22.389Z,54.17
2023-02-12T00:24:23.502Z,47.77
2023-02-12T00:28:24.853Z,48.53
2023-02-12T00:32:25.852Z,51.67
2023-02-12T00:36:30.160Z,53.33
2023-02-12T00:40:31.250Z,55.23
2023-02-12T00:44:32.885Z,54.33
2023-02-12T00:48:34.910Z,55.23
2023-02-12T00:52:36.005Z,56.67
2023-02-12T00:56:37.213Z,57.00
2023-02-12T01:00:38.472Z,55.27
2023-02-12T01:04:39.655Z,53.90
2023-02-12T01:08:40.764Z,53.03
2023-02-12T01:12:41.856Z,53.23
2023-02-12T01:16:43.109Z,54.17
2023-02-12T01:20:44.072Z,54.93
2023-02-12T01:24:45.194Z,56.13
2023-02-12T01:28:49.921Z,56.27
2023-02-12T01:32:51.244Z,60.47
2023-02-12T01:36:52.171Z,59.83
2023-02-12T01:40:53.251Z,57.27
2023-02-12T01:45:16.335Z,55.77
2023-02-12T01:49:21.224Z,58.23
2023-02-12T01:53:24.840Z,60.23
2023-02-12T01:57:29.639Z,55.93
2023-02-12T02:01:33.552Z,55.03
2023-02-12T02:05:53.818Z,55.67
2023-02-12T02:09:56.415Z,57.60
2023-02-12T02:14:15.797Z,56.93
2023-02-12T02:18:23.726Z,59.13
2023-02-12T02:22:40.872Z,55.40
2023-02-12T02:26:51.634Z,56.43
2023-02-12T02:30:59.666Z,53.83
2023-02-12T02:35:13.603Z,57.40
2023-02-12T02:39:24.525Z,57.03
2023-02-12T02:43:32.209Z,57.07
2023-02-12T02:47:54.521Z,57.73
2023-02-12T02:51:59.303Z,55.10
2023-02-12T02:56:03.503Z,53.03
2023-02-12T03:00:08.512Z,52.43
2023-02-12T03:04:16.486Z,53.27
2023-02-12T03:08:24.652Z,52.07
2023-02-12T03:12:29.412Z,53.00
2023-02-12T03:16:34.056Z,54.67
2023-02-12T03:20:38.997Z,55.57
2023-02-12T03:24:46.466Z,55.43
2023-02-12T03:28:47.690Z,53.17
2023-02-12T03:32:58.523Z,57.63
2023-02-12T03:37:06.325Z,59.20
2023-02-12T03:41:23.150Z,54.33
2023-02-12T03:45:39.993Z,53.47
2023-02-12T03:49:53.303Z,52.40
2023-02-12T03:53:56.032Z,56.50
2023-02-12T03:58:00.993Z,52.80
2023-02-12T04:02:02.089Z,52.37
2023-02-12T04:06:03.750Z,51.23
2023-02-12T04:10:05.865Z,48.73
2023-02-12T04:14:41.217Z,48.60
2023-02-12T04:18:44.594Z,47.80
2023-02-12T04:23:22.677Z,48.27
2023-02-12T04:27:27.605Z,46.97
2023-02-12T04:31:44.636Z,44.80
2023-02-12T04:35:52.207Z,43.80
2023-02-12T04:39:53.913Z,50.03
2023-02-12T04:43:55.059Z,45.93
2023-02-12T04:47:57.130Z,42.10
2023-02-12T04:51:58.343Z,44.37
2023-02-12T04:55:59.321Z,46.77
2023-02-12T05:00:00.568Z,44.13
2023-02-12T05:04:02.015Z,43.70
2023-02-12T05:08:03.108Z,41.50
2023-02-12T05:12:04.890Z,45.70
2023-02-12T05:16:07.362Z,47.37
2023-02-12T05:20:09.746Z,51.07
2023-02-12T05:24:10.728Z,49.20
2023-02-12T05:28:11.714Z,51.43
2023-02-12T05:32:12.897Z,48.70
2023-02-12T05:36:16.233Z,48.97
2023-02-12T05:40:17.480Z,54.47
2023-02-12T05:44:18.662Z,48.47
2023-02-12T05:48:19.773Z,52.97
2023-02-12T05:52:20.946Z,50.70
2023-02-12T05:56:24.552Z,52.07
2023-02-12T06:00:25.936Z,52.00
2023-02-12T06:04:28.424Z,50.67
2023-02-12T06:08:29.766Z,50.27
2023-02-12T06:12:30.900Z,53.03
2023-02-12T06:16:32.745Z,57.27
2023-02-12T06:20:33.775Z,51.67
2023-02-12T06:24:36.612Z,56.00
2023-02-12T06:28:37.911Z,54.83
2023-02-12T06:32:39.058Z,52.40
2023-02-12T06:36:43.983Z,49.43
2023-02-12T06:40:44.944Z,51.27
2023-02-12T06:44:47.200Z,51.33
2023-02-12T06:48:48.222Z,50.90
2023-02-12T06:52:49.200Z,52.80
2023-02-12T06:56:51.801Z,53.47
2023-02-12T07:00:52.823Z,50.73
2023-02-12T07:04:53.851Z,51.73
2023-02-12T07:08:55.855Z,59.60
2023-02-12T07:12:56.963Z,52.57
2023-02-12T07:16:58.101Z,51.53
2023-02-12T07:20:59.066Z,53.20
2023-02-12T07:25:00.232Z,53.57
2023-02-12T07:29:01.340Z,50.23
2023-02-12T07:33:03.305Z,53.63
2023-02-12T07:37:05.014Z,52.70
2023-02-12T07:41:14.815Z,54.30
2023-02-12T07:45:16.211Z,51.27
2023-02-12T07:49:21.944Z,54.77
2023-02-12T07:53:23.203Z,50.40
2023-02-12T07:57:24.333Z,49.50
2023-02-12T08:01:33.438Z,48.80
2023-02-12T08:05:34.937Z,48.33
2023-02-12T08:09:36.158Z,48.03
2023-02-12T08:13:37.843Z,47.03
2023-02-12T08:17:38.960Z,42.43
2023-02-12T08:21:40.463Z,43.93
2023-02-12T08:25:41.417Z,42.43
2023-02-12T08:29:44.292Z,43.17
2023-02-12T08:33:46.341Z,46.07
2023-02-12T08:37:47.448Z,44.83
2023-02-12T08:41:48.877Z,43.83
2023-02-12T08:45:49.880Z,43.73
2023-02-12T08:49:50.929Z,42.57
2023-02-12T08:53:55.681Z,42.17
2023-02-12T08:57:57.649Z,41.73
2023-02-12T09:01:59.776Z,41.53
2023-02-12T09:06:05.421Z,40.17
2023-02-12T09:10:07.463Z,36.87
2023-02-12T09:14:12.265Z,35.90
2023-02-12T09:18:14.559Z,36.90
2023-02-12T09:22:15.628Z,36.00
2023-02-12T09:26:21.770Z,33.93
2023-02-12T09:30:22.865Z,33.13
2023-02-12T09:34:23.806Z,29.00
2023-02-12T09:38:24.766Z,32.20
2023-02-12T09:42:38.647Z,32.77
2023-02-12T09:47:04.565Z,33.50
2023-02-12T09:51:08.845Z,34.37
2023-02-12T09:55:17.656Z,32.70
2023-02-12T09:59:29.075Z,28.50
2023-02-12T10:03:30.711Z,29.97
2023-02-12T10:07:44.268Z,28.83
2023-02-12T10:12:16.136Z,28.37
2023-02-12T10:16:38.823Z,25.17
2023-02-12T10:21:09.165Z,24.53
2023-02-12T10:25:17.856Z,20.53
2023-02-12T10:29:22.719Z,22.87
2023-02-12T10:33:34.574Z,23.77
2023-02-12T10:37:59.148Z,27.40
2023-02-12T10:42:15.741Z,27.57
2023-02-12T10:46:17.625Z,25.60
2023-02-12T10:50:40.832Z,27.30
2023-02-12T10:54:48.728Z,28.80
2023-02-12T10:58:59.379Z,26.80
2023-02-12T11:03:06.990Z,27.30
2023-02-12T11:07:09.296Z,27.03
2023-02-12T11:11:31.171Z,24.10
2023-02-12T11:15:45.442Z,21.40
2023-02-12T11:19:50.170Z,22.80
2023-02-12T11:23:51.352Z,19.00
2023-02-12T11:28:08.470Z,16.47
2023-02-12T11:32:18.862Z,19.80
2023-02-12T11:36:25.451Z,18.83
2023-02-12T11:40:29.117Z,22.60
2023-02-12T11:44:34.120Z,24.07
2023-02-12T11:48:39.045Z,23.10
2023-02-12T11:52:40.827Z,22.77
2023-02-12T11:56:46.032Z,21.10
2023-02-12T12:00:57.039Z,19.17
2023-02-12T12:05:02.052Z,21.30
2023-02-12T12:09:26.183Z,19.93
2023-02-12T12:13:33.768Z,19.40
2023-02-12T12:18:14.985Z,19.60
2023-02-12T12:22:28.820Z,21.23
2023-02-12T12:26:33.826Z,19.63
2023-02-12T12:30:55.151Z,17.93
2023-02-12T12:34:56.186Z,19.20
2023-02-12T12:39:18.401Z,17.50
2023-02-12T12:43:32.613Z,16.37
2023-02-12T12:47:40.350Z,16.47
2023-02-12T12:52:00.431Z,16.33
2023-02-12T12:56:14.457Z,15.77
2023-02-12T13:00:40.566Z,17.53
2023-02-12T13:05:01.060Z,17.70
2023-02-12T13:09:12.231Z,16.13
2023-02-12T13:13:35.414Z,11.07
2023-02-12T13:17:40.863Z,10.63
2023-02-12T13:22:09.650Z,12.03
2023-02-12T13:26:17.359Z,9.37
2023-02-12T13:30:22.267Z,11.53
2023-02-12T13:34:27.831Z,18.83
2023-02-12T13:38:32.776Z,22.17
2023-02-12T13:42:40.384Z,20.97
2023-02-12T13:46:51.045Z,21.73
2023-02-12T13:51:02.058Z,23.83
2023-02-12T13:55:27.398Z,29.67
2023-02-12T13:59:35.216Z,29.07
2023-02-12T14:03:37.848Z,26.87
2023-02-12T14:07:45.903Z,30.13
2023-02-12T14:11:51.818Z,27.23
2023-02-12T14:15:55.668Z,28.37
2023-02-12T14:20:12.656Z,27.13
2023-02-12T14:24:38.461Z,27.37
2023-02-12T14:28:55.180Z,27.87
2023-02-12T14:32:58.723Z,25.20
2023-02-12T14:37:17.842Z,22.87
2023-02-12T14:41:36.667Z,24.27
2023-02-12T14:45:37.913Z,19.30
2023-02-12T14:49:48.805Z,20.67
2023-02-12T14:53:51.855Z,18.67
2023-02-12T14:58:02.465Z,18.43
2023-02-12T15:02:05.672Z,19.90
2023-02-12T15:06:16.520Z,17.93
2023-02-12T15:10:31.463Z,18.00
2023-02-12T15:14:35.935Z,17.10
2023-02-12T15:18:49.743Z,17.83
2023-02-12T15:22:51.232Z,16.03
2023-02-12T15:26:54.557Z,14.10
2023-02-12T15:30:56.658Z,14.77
2023-02-12T15:34:58.134Z,12.90
2023-02-12T15:39:05.472Z,10.90
2023-02-12T15:43:10.619Z,9.60
2023-02-12T15:47:14.595Z,11.17
2023-02-12T15:51:37.793Z,12.63
2023-02-12T15:55:41.923Z,12.13
2023-02-12T15:59:43.157Z,11.90
2023-02-12T16:03:51.125Z,16.37
2023-02-12T16:07:52.676Z,12.93
2023-02-12T16:11:55.427Z,14.33
2023-02-12T16:16:15.592Z,16.97
2023-02-12T16:20:21.186Z,19.50
2023-02-12T16:24:29.290Z,18.80
2023-02-12T16:28:31.830Z,17.50
2023-02-12T16:32:38.856Z,18.70
2023-02-12T16:36:43.864Z,22.27
2023-02-12T16:40:49.050Z,18.90
2023-02-12T16:44:51.117Z,22.20
2023-02-12T16:48:53.912Z,27.02
2023-02-12T16:53:03.578Z,32.60
2023-02-12T16:57:04.902Z,44.00
2023-02-12T17:01:06.698Z,29.47
2023-02-12T17:05:10.008Z,25.77
2023-02-12T17:09:11.130Z,24.70
2023-02-12T17:13:12.730Z,25.50
2023-02-12T17:17:14.340Z,23.10
2023-02-12T17:21:24.383Z,23.77
2023-02-12T17:25:25.956Z,23.67
2023-02-12T17:29:27.850Z,25.43
2023-02-12T17:33:28.964Z,23.53
2023-02-12T17:37:30.080Z,21.47
2023-02-12T17:41:31.720Z,20.50
2023-02-12T17:45:33.872Z,18.87
2023-02-12T17:49:35.356Z,19.37
2023-02-12T17:53:37.745Z,20.03
2023-02-12T17:57:39.424Z,17.53
2023-02-12T18:01:40.490Z,17.57
2023-02-12T18:05:42.531Z,16.20
2023-02-12T18:09:43.745Z,16.83
2023-02-12T18:13:45.707Z,17.20
2023-02-12T18:17:46.909Z,17.43
2023-02-12T18:21:48.206Z,15.93
2023-02-12T18:25:49.169Z,14.87
2023-02-12T18:29:51.690Z,15.60
2023-02-12T18:33:53.113Z,14.97
2023-02-12T18:37:54.276Z,14.37
2023-02-12T18:41:56.332Z,15.00
2023-02-12T18:45:57.520Z,14.83
2023-02-12T18:49:58.609Z,16.70
2023-02-12T18:54:02.245Z,17.33
2023-02-12T18:58:03.612Z,17.10
2023-02-12T19:02:05.595Z,17.83
2023-02-12T19:06:06.924Z,15.90
2023-02-12T19:10:08.836Z,15.97
2023-02-12T19:14:10.052Z,16.17
2023-02-12T19:18:11.636Z,18.00
2023-02-12T19:22:12.927Z,16.50
2023-02-12T19:26:15.587Z,15.90
2023-02-12T19:30:16.871Z,16.20
2023-02-12T19:34:20.556Z,18.03
2023-02-12T19:38:22.142Z,17.53
2023-02-12T19:42:24.552Z,19.70
2023-02-12T19:46:28.851Z,22.50
2023-02-12T19:50:30.397Z,23.53
2023-02-12T19:54:31.702Z,18.70
2023-02-12T19:58:33.151Z,20.33
2023-02-12T20:02:34.185Z,19.53
2023-02-12T20:06:36.930Z,20.27
2023-02-12T20:10:39.819Z,20.87
2023-02-12T20:14:41.117Z,19.73
2023-02-12T20:18:44.269Z,21.70
2023-02-12T20:22:45.687Z,20.43
2023-02-12T20:26:47.369Z,20.87
2023-02-12T20:30:48.940Z,19.60
2023-02-12T20:34:51.806Z,22.03
2023-02-12T20:38:55.409Z,21.50
2023-02-12T20:42:57.123Z,21.47
2023-02-12T20:46:58.090Z,23.43
2023-02-12T20:51:04.603Z,23.00
2023-02-12T20:55:08.321Z,25.50
2023-02-12T20:59:11.202Z,25.10
2023-02-12T21:03:12.324Z,24.73
2023-02-12T21:07:13.377Z,25.07
2023-02-12T21:11:17.666Z,25.40
2023-02-12T21:15:18.850Z,24.70
2023-02-12T21:19:20.995Z,27.17
2023-02-12T21:23:22.574Z,26.60
2023-02-12T21:27:23.662Z,27.50
2023-02-12T21:31:30.393Z,26.27
2023-02-12T21:35:33.869Z,27.60
2023-02-12T21:39:34.883Z,26.50
2023-02-12T21:43:37.149Z,28.13
2023-02-12T21:47:38.281Z,29.37
2023-02-12T21:51:41.836Z,29.90
2023-02-12T21:55:42.982Z,26.73
2023-02-12T21:59:43.958Z,26.90
2023-02-12T22:03:45.556Z,25.27
2023-02-12T22:07:50.309Z,27.13
2023-02-12T22:11:51.848Z,28.57
2023-02-12T22:15:53.292Z,27.60
2023-02-12T22:19:54.281Z,26.30
2023-02-12T22:23:56.091Z,28.63
2023-02-12T22:27:57.210Z,24.80
2023-02-12T22:31:58.235Z,26.73
2023-02-12T22:36:07.991Z,28.13
2023-02-12T22:40:10.112Z,34.67
2023-02-12T22:44:12.790Z,36.63
2023-02-12T22:48:13.915Z,27.67
2023-02-12T22:52:14.910Z,25.47
2023-02-12T22:56:16.684Z,26.10
2023-02-12T23:00:18.691Z,23.07
2023-02-12T23:04:20.059Z,24.90
2023-02-12T23:08:21.221Z,22.87
2023-02-12T23:12:22.197Z,21.93
2023-02-12T23:16:24.143Z,22.77
2023-02-12T23:20:25.272Z,26.27
2023-02-12T23:24:26.421Z,23.90
2023-02-12T23:28:27.896Z,22.27
2023-02-12T23:32:29.043Z,22.03
2023-02-12T23:36:30.212Z,23.30
2023-02-12T23:40:32.907Z,23.37
2023-02-12T23:44:34.146Z,26.23
2023-02-12T23:48:35.203Z,24.37
2023-02-12T23:52:36.781Z,24.23
2023-02-12T23:56:38.222Z,22.57
